createdAt,value
2022-11-17T06:02:15.363Z,13.30
2022-11-17T06:07:20.387Z,13.30
2022-11-17T06:12:24.277Z,13.30
2022-11-17T06:17:34.904Z,13.20
2022-11-17T06:22:39.599Z,13.20
2022-11-17T06:27:46.469Z,13.10
2022-11-17T06:32:52.217Z,13.10
2022-11-17T06:37:56.098Z,13.00
2022-11-17T06:43:08.422Z,13.00
2022-11-17T06:48:15.828Z,12.90
2022-11-17T06:53:19.639Z,12.80
2022-11-17T06:58:23.182Z,12.70
2022-11-17T07:03:28.123Z,12.70
2022-11-17T07:08:32.247Z,12.70
2022-11-17T07:13:36.368Z,12.60
2022-11-17T07:18:42.616Z,12.60
2022-11-17T07:23:46.314Z,12.60
2022-11-17T07:28:49.810Z,12.60
2022-11-17T07:33:55.916Z,12.50
2022-11-17T07:38:59.393Z,12.40
2022-11-17T07:44:03.174Z,12.40
2022-11-17T07:49:08.079Z,12.40
2022-11-17T07:54:11.608Z,12.40
2022-11-17T07:59:19.986Z,12.40
2022-11-17T08:04:26.251Z,12.50
2022-11-17T08:09:29.762Z,12.50
2022-11-17T08:14:33.244Z,12.60
2022-11-17T08:19:38.053Z,12.60
2022-11-17T08:24:41.598Z,12.70
2022-11-17T08:29:45.118Z,12.70
2022-11-17T08:34:50.011Z,12.80
2022-11-17T08:39:53.561Z,13.00
2022-11-17T08:44:57.095Z,13.20
2022-11-17T08:50:01.938Z,13.40
2022-11-17T08:55:06.981Z,13.50
2022-11-17T09:00:11.720Z,13.80
2022-11-17T09:05:16.423Z,14.10
2022-11-17T09:10:20.168Z,14.30
2022-11-17T09:15:23.886Z,14.50
2022-11-17T09:20:29.081Z,14.80
2022-11-17T09:25:32.907Z,15.10
2022-11-17T09:30:37.480Z,15.20
2022-11-17T09:35:42.236Z,15.40
2022-11-17T09:40:45.729Z,15.80
2022-11-17T09:45:50.382Z,16.10
2022-11-17T09:50:59.497Z,16.30
2022-11-17T09:56:05.371Z,16.60
2022-11-17T10:01:12.477Z,16.80
2022-11-17T10:06:20.729Z,16.80
2022-11-17T10:11:32.982Z,16.70
2022-11-17T10:16:36.877Z,16.70
2022-11-17T10:21:41.832Z,16.50
2022-11-17T10:26:47.779Z,16.50
2022-11-17T10:31:51.451Z,16.60
2022-11-17T10:36:56.397Z,16.90
2022-11-17T10:41:59.939Z,17.10
2022-11-17T10:47:07.331Z,17.20
2022-11-17T10:52:18.483Z,17.50
2022-11-17T10:57:26.655Z,17.90
2022-11-17T11:02:32.734Z,18.20
2022-11-17T11:07:38.059Z,18.60
2022-11-17T11:12:48.646Z,18.70
2022-11-17T11:17:52.688Z,18.70
2022-11-17T11:23:03.703Z,18.80
2022-11-17T11:28:17.609Z,19.00
2022-11-17T11:33:34.368Z,19.20
2022-11-17T11:38:52.350Z,19.50
2022-11-17T11:44:07.347Z,19.70
2022-11-17T11:49:19.539Z,19.90
2022-11-17T11:54:35.539Z,20.00
2022-11-17T11:59:49.329Z,19.70
2022-11-17T12:05:00.826Z,19.20
2022-11-17T12:10:12.128Z,18.80
2022-11-17T12:15:35.565Z,18.50
2022-11-17T12:21:05.920Z,18.10
2022-11-17T12:26:22.500Z,18.30
2022-11-17T12:31:46.395Z,18.60
2022-11-17T12:37:08.755Z,18.70
2022-11-17T12:42:13.686Z,18.70
2022-11-17T12:47:20.548Z,18.50
2022-11-17T12:52:33.976Z,18.20
2022-11-17T12:57:40.066Z,17.80
2022-11-17T13:02:59.604Z,17.60
2022-11-17T13:08:21.264Z,17.30
2022-11-17T13:13:26.405Z,17.00
2022-11-17T13:18:32.879Z,16.60
2022-11-17T13:23:36.493Z,16.40
2022-11-17T13:28:41.470Z,16.30
2022-11-17T13:33:45.161Z,16.20
2022-11-17T13:38:50.530Z,16.20
2022-11-17T13:43:56.978Z,16.00
2022-11-17T13:49:00.627Z,15.80
2022-11-17T13:54:07.671Z,15.60
2022-11-17T13:59:25.199Z,15.50
2022-11-17T14:04:28.815Z,15.40
2022-11-17T14:09:34.474Z,15.30
2022-11-17T14:14:44.679Z,15.20
2022-11-17T14:19:48.695Z,15.20
2022-11-17T14:24:53.443Z,15.30
2022-11-17T14:29:58.501Z,15.20
2022-11-17T14:35:02.194Z,15.20
2022-11-17T14:40:07.903Z,15.20
2022-11-17T14:45:16.400Z,15.20
2022-11-17T14:50:20.318Z,15.20
2022-11-17T14:55:23.911Z,15.20
2022-11-17T15:00:29.166Z,15.10
2022-11-17T15:05:32.767Z,15.00
2022-11-17T15:10:36.643Z,15.10
2022-11-17T15:15:41.680Z,15.00
2022-11-17T15:20:45.328Z,15.00
2022-11-17T15:25:48.916Z,14.90
2022-11-17T15:30:53.935Z,14.90
2022-11-17T15:36:04.586Z,14.80
2022-11-17T15:41:09.493Z,14.70
2022-11-17T15:46:15.959Z,14.60
2022-11-17T15:51:21.748Z,14.60
2022-11-17T15:56:27.870Z,14.50
2022-11-17T16:01:34.457Z,14.60
2022-11-17T16:06:40.018Z,14.50
2022-11-17T16:11:43.645Z,14.50
2022-11-17T16:16:48.674Z,14.50
2022-11-17T16:21:52.245Z,14.40
2022-11-17T16:26:55.826Z,14.40
2022-11-17T16:32:00.836Z,14.40
2022-11-17T16:37:04.431Z,14.30
2022-11-17T16:42:07.989Z,14.30
2022-11-17T16:47:12.901Z,14.20
2022-11-17T16:52:16.469Z,14.20
2022-11-17T16:57:20.037Z,14.10
2022-11-17T17:02:26.097Z,14.10
2022-11-17T17:07:29.723Z,14.00
2022-11-17T17:12:33.387Z,13.90
2022-11-17T17:17:38.715Z,13.90
2022-11-17T17:22:42.295Z,14.00
2022-11-17T17:27:45.826Z,13.70
2022-11-17T17:32:50.734Z,13.70
2022-11-17T17:37:54.264Z,13.60
2022-11-17T17:42:57.810Z,13.50
2022-11-17T17:48:03.003Z,13.30
2022-11-17T17:53:06.695Z,13.30
2022-11-17T17:58:10.301Z,13.20
2022-11-17T18:03:15.463Z,13.10
2022-11-17T18:08:19.093Z,13.00
2022-11-17T18:13:22.653Z,13.10
2022-11-17T18:18:27.594Z,13.00
2022-11-17T18:23:34.298Z,12.90
2022-11-17T18:28:39.522Z,12.90
2022-11-17T18:33:45.729Z,12.90
2022-11-17T18:38:51.035Z,12.80
2022-11-17T18:43:56.189Z,12.80
2022-11-17T18:49:02.140Z,12.70
2022-11-17T18:54:06.097Z,12.60
2022-11-17T18:59:12.344Z,12.60
2022-11-17T19:04:18.277Z,12.60
2022-11-17T19:09:22.271Z,12.50
2022-11-17T19:14:26.307Z,12.50
2022-11-17T19:19:31.751Z,12.40
2022-11-17T19:24:35.623Z,12.30
2022-11-17T19:29:40.265Z,12.30
2022-11-17T19:34:45.065Z,12.20
2022-11-17T19:39:48.902Z,12.20
2022-11-17T19:44:52.703Z,12.10
2022-11-17T19:49:57.737Z,12.10
2022-11-17T19:55:01.341Z,12.10
2022-11-17T20:00:05.876Z,12.00
2022-11-17T20:05:16.691Z,12.00
2022-11-17T20:10:20.449Z,11.90
2022-11-17T20:15:35.271Z,11.90
2022-11-17T20:20:40.215Z,11.90
2022-11-17T20:25:44.156Z,11.90
2022-11-17T20:30:47.772Z,11.80
2022-11-17T20:35:52.763Z,11.80
2022-11-17T20:40:57.851Z,11.70
2022-11-17T20:46:01.602Z,11.70
2022-11-17T20:51:08.785Z,11.70
2022-11-17T20:56:14.275Z,11.70
2022-11-17T21:01:20.168Z,11.70
2022-11-17T21:06:25.220Z,11.60
2022-11-17T21:11:46.415Z,11.60
2022-11-17T21:16:50.205Z,11.60
2022-11-17T21:21:55.654Z,11.60
2022-11-17T21:26:59.425Z,11.70
2022-11-17T21:32:03.035Z,11.70
2022-11-17T21:37:08.120Z,11.70
2022-11-17T21:42:11.779Z,11.70
2022-11-17T21:47:15.418Z,11.70
2022-11-17T21:52:20.355Z,11.70
2022-11-17T21:57:23.917Z,11.70
2022-11-17T22:02:27.480Z,11.60
2022-11-17T22:07:32.644Z,11.70
2022-11-17T22:12:36.326Z,11.60
2022-11-17T22:17:39.925Z,11.60
2022-11-17T22:22:45.445Z,11.60
2022-11-17T22:27:49.114Z,11.60
2022-11-17T22:32:52.699Z,11.60
2022-11-17T22:37:57.660Z,11.50
2022-11-17T22:43:04.504Z,11.50
2022-11-17T22:48:08.876Z,11.50
2022-11-17T22:53:13.830Z,11.50
2022-11-17T22:58:17.575Z,11.50
2022-11-17T23:03:21.291Z,11.40
2022-11-17T23:08:26.458Z,11.40
2022-11-17T23:13:30.627Z,11.40
2022-11-17T23:18:36.479Z,11.30
2022-11-17T23:23:42.124Z,11.30
2022-11-17T23:28:45.953Z,11.30
